To NAV CANADA Home Page Login to a new session Search on AWWS site Feedback and Comments Disclaimer Vers la page française équivalente Tips FAQ What's new on the site To the Forecasts and Observations / NOTAM section To "File a Flight Plan" website Publications and other links Update of the User's profile FIC Telephone Numbers My Weather Data Folder Route Weather Data Regional Weather Data Local Weather Data To the Forecasts and Observations / NOTAM section
Request Generated 04/23/2014 at 09:46:02 UTC . Weather information available at that time is displayed.

METAR/TAF

LOURDES-DE-BLANC-SABLON/QC    

METAR CYBX 230900Z 06016KT 15SM OVC100 M02/M05 A2992 RMK AS8 SLP134=
METAR CYBX 230800Z 06017KT 15SM BKN100 M02/M05 A2991 RMK AS7 SLP131=
METAR CYBX 230700Z 06017G22KT 15SM FEW100 SCT200 M02/M04 A2991 RMK AC2CI1 SLP130=

TAF CYBX 230738Z 2308/2320 06012KT P6SM FEW100
FM231000 06012KT P6SM BKN050
BECMG 2310/2312 06012G22KT
FM231400 08015G25KT P6SM SCT100
RMK NXT FCST BY 231400Z=
Your time UTC time
Weather data provided by Environment Canada and NAV CANADA